createdAt,value
2019-04-03T00:00:16.460Z,77.20
2019-04-03T00:02:44.949Z,77.80
2019-04-03T00:05:13.565Z,77.90
2019-04-03T00:07:42.108Z,79.50
2019-04-03T00:10:10.921Z,79.00
2019-04-03T00:12:41.075Z,79.80
2019-04-03T00:15:09.906Z,79.60
2019-04-03T00:17:38.453Z,80.80
2019-04-03T00:20:08.745Z,81.40
2019-04-03T00:22:38.157Z,82.20
2019-04-03T00:25:07.795Z,82.00
2019-04-03T00:27:36.445Z,81.90
2019-04-03T00:30:07.133Z,83.00
2019-04-03T00:32:35.951Z,82.90
2019-04-03T00:35:06.898Z,83.00
2019-04-03T00:37:35.468Z,83.20
2019-04-03T00:40:06.842Z,83.40
2019-04-03T00:42:35.489Z,84.00
2019-04-03T00:45:05.771Z,84.70
2019-04-03T00:47:34.414Z,83.80
2019-04-03T00:50:03.125Z,84.20
2019-04-03T00:52:31.589Z,84.90
2019-04-03T00:55:00.134Z,84.50
2019-04-03T00:57:28.703Z,85.60
2019-04-03T00:59:57.391Z,85.50
2019-04-03T01:02:27.914Z,84.80
2019-04-03T01:04:57.987Z,85.00
2019-04-03T01:07:27.528Z,84.90
2019-04-03T01:09:59.069Z,84.90
2019-04-03T01:12:26.989Z,85.00
2019-04-03T01:14:55.598Z,85.70
2019-04-03T01:17:24.138Z,85.70
2019-04-03T01:19:52.777Z,86.00
2019-04-03T01:22:21.426Z,86.40
2019-04-03T01:24:50.157Z,86.10
2019-04-03T01:27:18.672Z,86.60
2019-04-03T01:29:47.342Z,87.10
2019-04-03T01:32:16.225Z,87.70
2019-04-03T01:34:46.995Z,86.90
2019-04-03T01:37:15.029Z,86.40
2019-04-03T01:39:43.577Z,87.30
2019-04-03T01:42:12.669Z,88.30
2019-04-03T01:44:41.214Z,88.50
2019-04-03T01:47:09.861Z,88.50
2019-04-03T01:49:38.446Z,87.90
2019-04-03T01:52:06.973Z,88.80
2019-04-03T01:54:35.514Z,89.70
2019-04-03T01:57:06.146Z,89.50
2019-04-03T01:59:34.338Z,89.90
2019-04-03T02:02:03.031Z,89.90
2019-04-03T02:04:31.594Z,90.10
2019-04-03T02:07:00.061Z,90.30
2019-04-03T02:09:28.596Z,90.50
2019-04-03T02:11:57.169Z,90.80
2019-04-03T02:14:25.637Z,90.20
2019-04-03T02:16:54.250Z,90.40
2019-04-03T02:19:25.744Z,90.50
2019-04-03T02:21:53.085Z,90.50
2019-04-03T02:24:21.630Z,90.70
2019-04-03T02:26:50.284Z,90.70
2019-04-03T02:29:18.778Z,90.40
2019-04-03T02:31:47.543Z,90.60
2019-04-03T02:34:17.793Z,91.10
2019-04-03T02:36:46.744Z,90.70
2019-04-03T02:39:15.550Z,90.80
2019-04-03T02:41:44.134Z,90.90
2019-04-03T02:44:12.720Z,90.80
2019-04-03T02:46:41.278Z,90.90
2019-04-03T02:49:10.986Z,91.00
2019-04-03T02:51:42.015Z,91.40
2019-04-03T02:54:28.630Z,91.40
2019-04-03T02:56:58.289Z,91.70
2019-04-03T02:59:27.257Z,92.00
2019-04-03T03:01:56.241Z,92.30
2019-04-03T03:04:26.119Z,92.20
2019-04-03T03:06:54.918Z,92.40
2019-04-03T03:09:23.877Z,92.30
2019-04-03T03:11:55.207Z,92.50
2019-04-03T03:14:23.511Z,92.90
2019-04-03T03:16:52.462Z,92.90
2019-04-03T03:19:22.982Z,93.10
2019-04-03T03:21:53.657Z,93.40
2019-04-03T03:24:22.426Z,93.40
2019-04-03T03:26:51.524Z,93.70
2019-04-03T03:29:25.264Z,93.90
2019-04-03T03:32:15.849Z,93.90
2019-04-03T03:34:45.219Z,94.10
2019-04-03T03:37:00.027Z,94.60
2019-04-03T03:39:25.570Z,94.60
2019-04-03T03:41:58.194Z,94.80
2019-04-03T03:44:27.075Z,94.70
2019-04-03T03:47:01.106Z,94.80
2019-04-03T03:49:28.634Z,94.90
2019-04-03T03:51:57.968Z,95.20
2019-04-03T03:54:28.406Z,95.20
2019-04-03T03:56:57.292Z,95.30
2019-04-03T03:59:26.397Z,95.30
2019-04-03T04:01:55.139Z,95.50
2019-04-03T04:04:23.973Z,95.50
2019-04-03T04:06:52.726Z,95.80
2019-04-03T04:09:21.430Z,95.80
2019-04-03T04:11:51.105Z,96.10
2019-04-03T04:14:22.517Z,96.50
2019-04-03T04:16:50.087Z,96.20
2019-04-03T04:19:19.090Z,96.40
2019-04-03T04:21:48.227Z,96.30
2019-04-03T04:24:17.915Z,96.50
2019-04-03T04:26:49.528Z,96.60
2019-04-03T04:29:17.706Z,96.50
2019-04-03T04:31:46.317Z,96.80
2019-04-03T04:34:15.084Z,97.00
2019-04-03T04:36:43.739Z,97.00
2019-04-03T04:39:12.346Z,97.10
2019-04-03T04:41:41.024Z,96.90
2019-04-03T04:44:09.994Z,97.00
2019-04-03T04:46:38.913Z,96.90
2019-04-03T04:49:07.485Z,96.90
2019-04-03T04:51:35.954Z,97.00
2019-04-03T04:54:04.637Z,97.20
2019-04-03T04:56:33.297Z,96.80
2019-04-03T04:59:01.777Z,96.90
2019-04-03T05:01:30.321Z,97.00
2019-04-03T05:03:58.822Z,96.70
2019-04-03T05:06:29.567Z,96.70
2019-04-03T05:08:57.554Z,96.50
2019-04-03T05:11:26.129Z,96.30
2019-04-03T05:13:54.670Z,96.20
2019-04-03T05:16:25.041Z,96.10
2019-04-03T05:18:53.693Z,96.10
2019-04-03T05:21:22.395Z,95.80
2019-04-03T05:23:51.867Z,95.60
2019-04-03T05:26:21.570Z,95.70
2019-04-03T05:28:57.052Z,95.10
2019-04-03T05:31:21.030Z,94.90
2019-04-03T05:33:49.497Z,94.90
2019-04-03T05:36:18.479Z,94.90
2019-04-03T05:38:47.332Z,94.60
2019-04-03T05:41:16.827Z,94.20
2019-04-03T05:43:46.053Z,93.70
2019-04-03T05:46:14.938Z,93.80
2019-04-03T05:48:43.719Z,93.60
2019-04-03T05:51:12.655Z,93.20
2019-04-03T05:53:41.466Z,93.10
2019-04-03T05:56:12.407Z,92.70
2019-04-03T05:58:40.711Z,92.40
2019-04-03T06:01:11.393Z,92.30
2019-04-03T06:03:44.518Z,91.80
2019-04-03T06:06:09.955Z,91.60
2019-04-03T06:08:38.589Z,90.60
2019-04-03T06:11:09.105Z,90.50
2019-04-03T06:13:37.497Z,90.10
2019-04-03T06:16:06.140Z,89.70
2019-04-03T06:18:34.758Z,87.90
2019-04-03T06:21:03.403Z,87.00
2019-04-03T06:23:32.002Z,86.10
2019-04-03T06:26:02.155Z,84.90
2019-04-03T06:28:30.796Z,83.80
2019-04-03T06:30:59.418Z,83.40
2019-04-03T06:33:30.989Z,84.10
2019-04-03T06:35:58.580Z,82.50
2019-04-03T06:38:27.182Z,82.90
2019-04-03T06:40:55.732Z,82.20
2019-04-03T06:43:24.350Z,81.40
2019-04-03T06:45:52.979Z,80.70
2019-04-03T06:48:21.743Z,79.20
2019-04-03T06:50:50.345Z,77.60
2019-04-03T06:53:18.882Z,78.30
2019-04-03T06:55:47.488Z,77.20
2019-04-03T06:58:16.110Z,76.40
2019-04-03T07:00:45.295Z,75.10
2019-04-03T07:03:15.078Z,76.60
2019-04-03T07:05:43.693Z,75.20
2019-04-03T07:08:12.670Z,75.10
2019-04-03T07:10:54.241Z,73.20
2019-04-03T07:13:14.948Z,72.80
2019-04-03T07:15:42.125Z,73.00
2019-04-03T07:18:10.702Z,69.90
2019-04-03T07:20:39.250Z,69.80
2019-04-03T07:23:07.805Z,68.70
2019-04-03T07:25:36.703Z,67.20
2019-04-03T07:28:08.599Z,67.80
2019-04-03T07:30:35.727Z,67.40
2019-04-03T07:33:05.791Z,65.00
2019-04-03T07:35:34.994Z,66.50
2019-04-03T07:38:03.705Z,66.20
2019-04-03T07:40:32.292Z,65.00
2019-04-03T07:43:01.081Z,64.70
2019-04-03T07:45:29.631Z,64.20
2019-04-03T07:47:58.221Z,64.20
2019-04-03T07:50:26.923Z,64.30
2019-04-03T07:52:55.495Z,62.80
2019-04-03T07:55:26.641Z,61.90
2019-04-03T07:57:54.397Z,62.10
2019-04-03T08:00:23.094Z,61.70
2019-04-03T08:02:51.742Z,61.80
2019-04-03T08:05:20.374Z,60.80
2019-04-03T08:07:49.057Z,60.40
2019-04-03T08:10:17.871Z,61.00
2019-04-03T08:12:47.954Z,60.40
2019-04-03T08:15:16.645Z,60.40
2019-04-03T08:17:45.236Z,59.70
2019-04-03T08:20:13.921Z,59.50
2019-04-03T08:22:42.475Z,59.80
2019-04-03T08:25:12.446Z,59.30
2019-04-03T08:27:42.444Z,59.90
2019-04-03T08:30:12.018Z,58.60
2019-04-03T08:32:40.684Z,59.60
2019-04-03T08:35:20.872Z,59.00
2019-04-03T08:37:41.944Z,58.90
2019-04-03T08:40:10.161Z,59.10
2019-04-03T08:42:38.701Z,57.40
2019-04-03T08:45:09.977Z,58.10
2019-04-03T08:47:38.627Z,57.90
2019-04-03T08:50:09.577Z,57.30
2019-04-03T08:52:38.126Z,56.60
2019-04-03T08:55:08.053Z,55.90
2019-04-03T08:57:36.600Z,56.10
2019-04-03T09:00:07.299Z,55.40
2019-04-03T09:02:35.971Z,55.70
2019-04-03T09:05:07.072Z,56.60
2019-04-03T09:07:35.989Z,55.50
2019-04-03T09:10:08.267Z,55.60
2019-04-03T09:12:38.405Z,53.90
2019-04-03T09:15:07.872Z,53.50
2019-04-03T09:17:36.699Z,54.30
2019-04-03T09:20:06.112Z,54.20
2019-04-03T09:22:34.717Z,54.60
2019-04-03T09:25:04.376Z,54.90
2019-04-03T09:27:33.019Z,54.30
2019-04-03T09:30:01.856Z,52.80
2019-04-03T09:32:32.412Z,53.80
2019-04-03T09:35:02.433Z,54.00
2019-04-03T09:37:31.031Z,53.60
2019-04-03T09:39:59.657Z,52.60
2019-04-03T09:42:28.254Z,53.10
2019-04-03T09:44:56.915Z,53.00
2019-04-03T09:47:26.127Z,53.60
2019-04-03T09:49:54.661Z,52.50
2019-04-03T09:52:24.048Z,53.30
2019-04-03T09:54:53.476Z,53.10
2019-04-03T09:57:22.185Z,52.70
2019-04-03T09:59:50.799Z,53.10
2019-04-03T10:02:20.317Z,52.50
2019-04-03T10:04:49.389Z,52.10
2019-04-03T10:07:18.019Z,50.70
2019-04-03T10:09:46.605Z,51.00
2019-04-03T10:12:15.260Z,50.50
2019-04-03T10:14:43.885Z,51.30
2019-04-03T10:17:12.508Z,50.40
2019-04-03T10:19:41.396Z,50.10
2019-04-03T10:22:10.010Z,51.20
2019-04-03T10:24:39.713Z,52.00
2019-04-03T10:27:10.454Z,51.50
2019-04-03T10:29:38.757Z,53.10
2019-04-03T10:32:07.331Z,52.60
2019-04-03T10:34:36.243Z,52.30
2019-04-03T10:37:05.089Z,52.00
2019-04-03T10:39:33.820Z,52.10
2019-04-03T10:42:02.368Z,51.30
2019-04-03T10:44:30.934Z,51.30
2019-04-03T10:46:59.509Z,50.50
2019-04-03T10:49:28.054Z,50.30
2019-04-03T10:51:59.040Z,51.60
2019-04-03T10:54:27.654Z,50.10
2019-04-03T10:56:56.434Z,50.10
2019-04-03T10:59:25.005Z,50.00
2019-04-03T11:01:53.632Z,49.10
2019-04-03T11:04:22.215Z,48.50
2019-04-03T11:06:50.909Z,48.40
2019-04-03T11:09:19.463Z,48.50
2019-04-03T11:11:48.536Z,48.90
2019-04-03T11:14:17.045Z,48.40
2019-04-03T11:16:46.482Z,48.80
2019-04-03T11:19:15.869Z,48.50
2019-04-03T11:21:45.579Z,48.10
2019-04-03T11:24:15.538Z,48.40
2019-04-03T11:26:44.266Z,47.80
2019-04-03T11:29:12.972Z,48.00
2019-04-03T11:31:42.829Z,47.70
2019-04-03T11:34:11.741Z,47.50
2019-04-03T11:36:40.286Z,48.10
2019-04-03T11:39:14.840Z,47.70
2019-04-03T11:41:40.353Z,47.70
2019-04-03T11:44:09.342Z,48.00
2019-04-03T11:46:38.073Z,48.10
2019-04-03T11:49:06.686Z,48.00
2019-04-03T11:51:35.240Z,47.00
2019-04-03T11:54:07.019Z,46.70
2019-04-03T11:56:34.153Z,47.10
2019-04-03T11:59:02.697Z,47.00
2019-04-03T12:01:32.626Z,47.10
2019-04-03T12:04:01.560Z,47.00
2019-04-03T12:06:30.165Z,47.60
2019-04-03T12:09:00.893Z,47.30
2019-04-03T12:11:28.936Z,47.10
2019-04-03T12:13:57.422Z,46.80
2019-04-03T12:16:26.615Z,46.70
2019-04-03T12:18:55.172Z,47.30
2019-04-03T12:21:23.828Z,47.20
2019-04-03T12:23:52.379Z,47.10
2019-04-03T12:26:21.362Z,47.80
2019-04-03T12:28:50.415Z,46.90
2019-04-03T12:31:19.448Z,46.60
2019-04-03T12:33:54.805Z,46.80
2019-04-03T12:36:18.413Z,47.20
2019-04-03T12:38:46.967Z,47.20
2019-04-03T12:41:15.585Z,48.30
2019-04-03T12:43:44.192Z,47.50
2019-04-03T12:46:13.033Z,47.10
2019-04-03T12:48:41.603Z,47.30
2019-04-03T12:51:10.195Z,46.80
2019-04-03T12:53:38.878Z,46.60
2019-04-03T12:56:07.558Z,47.00
2019-04-03T12:58:37.335Z,47.00
2019-04-03T13:01:06.769Z,47.00
2019-04-03T13:03:37.074Z,47.10
2019-04-03T13:06:06.960Z,46.70
2019-04-03T13:08:37.865Z,46.10
2019-04-03T13:11:06.482Z,45.50
2019-04-03T13:13:38.022Z,45.80
2019-04-03T13:16:07.380Z,46.10
2019-04-03T13:18:35.538Z,46.20
2019-04-03T13:21:04.420Z,45.70
2019-04-03T13:23:33.462Z,45.60
2019-04-03T13:26:02.145Z,45.40
2019-04-03T13:28:30.771Z,46.10
2019-04-03T13:31:01.051Z,45.30
2019-04-03T13:33:29.878Z,46.10
2019-04-03T13:35:58.481Z,45.20
2019-04-03T13:38:28.868Z,45.40
2019-04-03T13:40:57.482Z,45.80
2019-04-03T13:43:26.201Z,45.50
2019-04-03T13:45:54.897Z,46.20
2019-04-03T13:48:24.056Z,45.60
2019-04-03T13:50:54.871Z,45.30
2019-04-03T13:53:25.399Z,45.50
2019-04-03T13:55:53.286Z,45.20
2019-04-03T13:58:26.968Z,45.70
2019-04-03T14:01:00.966Z,45.90
2019-04-03T14:03:24.743Z,46.10
2019-04-03T14:05:54.749Z,45.70
2019-04-03T14:08:23.236Z,45.30
2019-04-03T14:10:51.889Z,45.00
2019-04-03T14:13:20.488Z,45.80
2019-04-03T14:15:49.148Z,46.40
2019-04-03T14:18:17.736Z,46.10
2019-04-03T14:20:46.362Z,46.60
2019-04-03T14:23:14.989Z,46.40
2019-04-03T14:25:43.616Z,45.70
2019-04-03T14:28:12.197Z,45.50
2019-04-03T14:30:43.728Z,45.90
2019-04-03T14:33:11.329Z,46.20
2019-04-03T14:35:49.410Z,46.00
2019-04-03T14:38:11.773Z,46.10
2019-04-03T14:40:43.069Z,46.20
2019-04-03T14:43:10.964Z,46.50
2019-04-03T14:45:40.227Z,46.40
2019-04-03T14:48:08.809Z,46.40
2019-04-03T14:50:39.175Z,46.10
2019-04-03T14:53:07.829Z,46.50
2019-04-03T14:55:47.099Z,46.80
2019-04-03T14:58:06.728Z,47.20
2019-04-03T15:00:35.684Z,46.90
2019-04-03T15:03:05.005Z,46.70
2019-04-03T15:05:34.376Z,47.40
2019-04-03T15:08:05.049Z,46.30
2019-04-03T15:10:33.190Z,46.90
2019-04-03T15:13:02.221Z,46.80
2019-04-03T15:15:31.225Z,46.80
2019-04-03T15:18:00.045Z,46.90
2019-04-03T15:20:28.761Z,46.60
2019-04-03T15:22:58.774Z,47.30
2019-04-03T15:25:27.327Z,47.00
2019-04-03T15:27:58.675Z,47.20
2019-04-03T15:30:26.161Z,47.30
2019-04-03T15:32:56.193Z,47.10
2019-04-03T15:35:24.817Z,47.40
2019-04-03T15:37:53.658Z,47.20
2019-04-03T15:40:24.714Z,47.50
2019-04-03T15:42:53.924Z,47.70
2019-04-03T15:45:25.360Z,47.80
2019-04-03T15:47:56.394Z,47.70
2019-04-03T15:50:27.291Z,47.70
2019-04-03T15:52:54.945Z,48.30
2019-04-03T15:55:25.127Z,48.50
2019-04-03T15:57:53.986Z,48.30
2019-04-03T16:00:23.589Z,48.40
2019-04-03T16:02:52.407Z,48.10
2019-04-03T16:05:21.129Z,48.80
2019-04-03T16:07:49.780Z,48.30
2019-04-03T16:10:18.523Z,48.50
2019-04-03T16:12:47.049Z,49.00
2019-04-03T16:15:15.903Z,48.80
2019-04-03T16:17:44.516Z,49.20
2019-04-03T16:20:15.890Z,49.10
2019-04-03T16:22:45.117Z,49.50
2019-04-03T16:25:15.546Z,49.70
2019-04-03T16:27:44.402Z,49.80
2019-04-03T16:30:15.404Z,50.20
2019-04-03T16:32:43.589Z,50.50
2019-04-03T16:35:14.501Z,50.50
2019-04-03T16:37:43.798Z,50.50
2019-04-03T16:40:13.349Z,50.90
2019-04-03T16:42:41.892Z,50.90
2019-04-03T16:45:12.019Z,51.40
2019-04-03T16:47:40.745Z,51.50
2019-04-03T16:50:10.304Z,51.60
2019-04-03T16:52:40.365Z,51.60
2019-04-03T16:55:09.203Z,52.00
2019-04-03T16:57:38.155Z,52.20
2019-04-03T17:00:10.039Z,52.20
2019-04-03T17:02:38.908Z,52.60
2019-04-03T17:05:10.450Z,53.00
2019-04-03T17:07:38.642Z,53.10
2019-04-03T17:10:09.927Z,53.30
2019-04-03T17:12:38.545Z,53.20
2019-04-03T17:15:09.730Z,53.50
2019-04-03T17:17:39.076Z,54.00
2019-04-03T17:20:08.388Z,54.40
2019-04-03T17:22:38.991Z,54.20
2019-04-03T17:25:07.969Z,54.30
2019-04-03T17:27:36.597Z,54.20
2019-04-03T17:30:08.972Z,54.90
2019-04-03T17:32:37.995Z,55.20
2019-04-03T17:35:07.837Z,55.10
2019-04-03T17:37:36.852Z,55.30
2019-04-03T17:40:08.460Z,55.70
2019-04-03T17:42:39.258Z,55.80
2019-04-03T17:45:08.170Z,55.60
2019-04-03T17:47:36.781Z,55.80
2019-04-03T17:50:08.839Z,55.80
2019-04-03T17:52:37.493Z,55.80
2019-04-03T17:55:10.836Z,55.90
2019-04-03T17:57:39.699Z,56.10
2019-04-03T18:00:13.255Z,56.50
2019-04-03T18:02:41.878Z,56.70
2019-04-03T18:05:10.780Z,56.80
2019-04-03T18:07:39.496Z,57.20
2019-04-03T18:10:12.218Z,57.30
2019-04-03T18:12:38.654Z,57.80
2019-04-03T18:15:10.088Z,57.80
2019-04-03T18:17:38.693Z,58.30
2019-04-03T18:20:12.574Z,59.00
2019-04-03T18:22:39.689Z,59.10
2019-04-03T18:25:08.685Z,59.40
2019-04-03T18:27:37.422Z,59.30
2019-04-03T18:30:11.267Z,59.20
2019-04-03T18:32:38.241Z,59.60
2019-04-03T18:35:07.417Z,59.90
2019-04-03T18:37:36.137Z,60.00
2019-04-03T18:40:07.086Z,60.00
2019-04-03T18:42:35.749Z,60.50
2019-04-03T18:45:06.684Z,60.90
2019-04-03T18:47:40.944Z,61.40
2019-04-03T18:50:08.327Z,61.80
2019-04-03T18:52:38.452Z,62.50
2019-04-03T18:55:07.360Z,63.30
2019-04-03T18:57:35.977Z,63.70
2019-04-03T19:00:06.996Z,64.30
2019-04-03T19:02:35.468Z,64.00
2019-04-03T19:05:09.031Z,65.30
2019-04-03T19:07:36.650Z,64.70
2019-04-03T19:10:07.798Z,65.10
2019-04-03T19:12:36.571Z,65.30
2019-04-03T19:15:08.310Z,65.40
2019-04-03T19:17:36.722Z,66.20
2019-04-03T19:20:11.010Z,66.10
2019-04-03T19:22:38.852Z,66.60
2019-04-03T19:25:08.145Z,66.80
2019-04-03T19:27:36.621Z,67.00
2019-04-03T19:30:07.764Z,67.30
2019-04-03T19:32:36.684Z,67.80
2019-04-03T19:35:09.250Z,68.00
2019-04-03T19:37:37.582Z,68.20
2019-04-03T19:40:09.445Z,68.20
2019-04-03T19:42:37.326Z,69.00
2019-04-03T19:45:08.074Z,70.20
2019-04-03T19:47:36.734Z,69.30
2019-04-03T19:50:07.356Z,70.10
2019-04-03T19:52:37.438Z,70.00
2019-04-03T19:55:07.858Z,70.60
2019-04-03T19:57:36.536Z,70.50
2019-04-03T20:00:07.496Z,70.90
2019-04-03T20:02:38.117Z,70.60
2019-04-03T20:05:07.422Z,70.70
2019-04-03T20:07:36.114Z,71.20
2019-04-03T20:10:09.644Z,71.50
2019-04-03T20:12:40.732Z,71.30
2019-04-03T20:15:11.096Z,71.90
2019-04-03T20:17:39.682Z,72.00
2019-04-03T20:20:08.894Z,72.70
2019-04-03T20:22:39.456Z,73.30
2019-04-03T20:25:08.451Z,73.50
2019-04-03T20:27:37.106Z,73.90
2019-04-03T20:30:08.554Z,73.90
2019-04-03T20:32:40.007Z,74.40
2019-04-03T20:35:07.933Z,74.10
2019-04-03T20:37:36.623Z,74.50
2019-04-03T20:40:06.940Z,74.60
2019-04-03T20:42:35.621Z,75.10
2019-04-03T20:45:06.235Z,75.00
2019-04-03T20:47:35.545Z,75.90
2019-04-03T20:50:07.886Z,76.30
2019-04-03T20:52:36.506Z,76.90
2019-04-03T20:55:06.736Z,76.70
2019-04-03T20:57:35.418Z,77.20
2019-04-03T21:00:12.721Z,78.00
2019-04-03T21:02:42.275Z,79.00
2019-04-03T21:05:11.291Z,79.40
2019-04-03T21:07:39.866Z,79.60
2019-04-03T21:10:08.780Z,80.60
2019-04-03T21:12:37.338Z,81.20
2019-04-03T21:15:08.663Z,81.20
2019-04-03T21:17:36.914Z,81.70
2019-04-03T21:20:06.604Z,82.20
2019-04-03T21:22:35.169Z,82.50
2019-04-03T21:25:05.499Z,83.20
2019-04-03T21:27:34.588Z,83.80
2019-04-03T21:30:04.005Z,83.30
2019-04-03T21:32:32.554Z,83.60
2019-04-03T21:35:03.024Z,84.50
2019-04-03T21:37:31.332Z,84.70
2019-04-03T21:40:04.338Z,85.10
2019-04-03T21:42:30.202Z,85.50
2019-04-03T21:44:58.776Z,85.50
2019-04-03T21:47:27.338Z,85.70
2019-04-03T21:49:55.870Z,87.00
2019-04-03T21:52:24.438Z,88.10
2019-04-03T21:54:52.908Z,87.70
2019-04-03T21:57:21.386Z,88.30
2019-04-03T21:59:49.931Z,88.80
2019-04-03T22:02:18.613Z,89.70
2019-04-03T22:04:47.157Z,91.30
2019-04-03T22:07:15.696Z,91.70
2019-04-03T22:09:44.264Z,92.80
2019-04-03T22:12:12.884Z,91.50
2019-04-03T22:14:42.854Z,91.90
2019-04-03T22:17:11.793Z,92.40
2019-04-03T22:19:40.266Z,92.30
2019-04-03T22:22:08.813Z,92.20
2019-04-03T22:24:37.747Z,92.10
2019-04-03T22:27:06.929Z,92.40
2019-04-03T22:29:35.476Z,92.70
2019-04-03T22:32:04.042Z,92.70
2019-04-03T22:34:32.517Z,92.50
2019-04-03T22:37:03.708Z,92.40
2019-04-03T22:39:31.281Z,92.90
2019-04-03T22:41:59.861Z,92.70
2019-04-03T22:44:28.367Z,92.70
2019-04-03T22:46:56.940Z,92.90
2019-04-03T22:49:25.412Z,93.00
2019-04-03T22:51:53.888Z,93.10
2019-04-03T22:54:23.704Z,93.20
2019-04-03T22:56:52.255Z,93.60
2019-04-03T22:59:23.545Z,93.70
2019-04-03T23:01:51.169Z,93.70
2019-04-03T23:04:19.713Z,93.60
2019-04-03T23:06:49.712Z,93.80
2019-04-03T23:09:18.734Z,94.10
2019-04-03T23:11:47.295Z,93.90
2019-04-03T23:14:15.875Z,94.00
2019-04-03T23:16:44.418Z,94.20
2019-04-03T23:19:12.962Z,94.50
2019-04-03T23:21:41.605Z,94.30
2019-04-03T23:24:10.144Z,94.40
2019-04-03T23:26:38.750Z,94.50
2019-04-03T23:29:07.322Z,94.80
2019-04-03T23:31:35.865Z,95.10
2019-04-03T23:34:04.625Z,95.00
2019-04-03T23:36:33.092Z,95.20
2019-04-03T23:39:01.561Z,95.30
2019-04-03T23:41:30.061Z,95.70
2019-04-03T23:43:58.669Z,95.90
2019-04-03T23:46:27.136Z,96.30
2019-04-03T23:48:57.196Z,96.10
2019-04-03T23:51:27.916Z,96.30
2019-04-03T23:53:56.027Z,96.40
2019-04-03T23:56:24.641Z,96.40
2019-04-03T23:58:53.196Z,96.60
